Time;durP1;ratioP1;P1;durP2;ratioP2;P2;SDS_P1;SDS_P2;PMS_P1;PMS_P2;Temp;Humidity;BMP_temperature;BMP_pressure;BME280_temperature;BME280_humidity;BME280_pressure;Samples;Min_cycle;Max_cycle;Signal;HPM_P1;HPM_P2
2022/12/30 00:00:40;;;;;;;1.88;0.73;;;;;;;;;;4528366;28;20038;-59
2022/12/30 00:02:50;;;;;;;1.95;0.80;;;;;;;;;;4528494;28;20036;-60
2022/12/30 00:05:00;;;;;;;1.05;0.80;;;;;;;;;;4528326;28;20590;-60
2022/12/30 00:07:11;;;;;;;0.80;0.60;;;;;;;;;;4526706;28;20037;-60
2022/12/30 00:09:21;;;;;;;1.80;0.75;;;;;;;;;;4528110;28;20063;-59
2022/12/30 00:11:33;;;;;;;1.15;0.80;;;;;;;;;;4528054;28;20335;-59
2022/12/30 00:34:01;;;;;;;1.02;0.75;;;;;;;;;;4529268;28;20180;-59
2022/12/30 00:36:11;;;;;;;1.15;0.52;;;;;;;;;;4529569;28;20037;-60
2022/12/30 00:38:22;;;;;;;1.20;0.80;;;;;;;;;;4528263;28;20042;-60
2022/12/30 00:40:32;;;;;;;1.55;0.80;;;;;;;;;;4529142;28;20025;-59
2022/12/30 00:45:11;;;;;;;1.00;0.75;;;;;;;;;;4528747;28;20029;-59
2022/12/30 00:47:22;;;;;;;2.08;0.80;;;;;;;;;;4526350;28;20604;-60
2022/12/30 00:57:00;;;;;;;1.13;0.70;;;;;;;;;;4526996;28;20054;-59
2022/12/30 00:59:10;;;;;;;0.95;0.70;;;;;;;;;;4527895;28;20033;-59
2022/12/30 01:01:21;;;;;;;0.60;0.57;;;;;;;;;;4527674;28;20557;-60
2022/12/30 01:03:31;;;;;;;1.52;0.80;;;;;;;;;;4526914;28;20060;-59
2022/12/30 01:05:41;;;;;;;2.55;0.90;;;;;;;;;;4527120;28;20048;-59
2022/12/30 01:07:51;;;;;;;1.38;0.70;;;;;;;;;;4527169;28;20075;-60
2022/12/30 01:10:02;;;;;;;1.48;0.63;;;;;;;;;;4528408;28;20069;-60
2022/12/30 01:12:12;;;;;;;1.25;0.70;;;;;;;;;;4526529;28;20034;-60
2022/12/30 01:14:23;;;;;;;1.90;0.82;;;;;;;;;;4525669;28;20037;-59
2022/12/30 01:16:33;;;;;;;1.17;0.73;;;;;;;;;;4528175;28;20565;-59
2022/12/30 01:18:43;;;;;;;1.00;0.68;;;;;;;;;;4527419;28;20155;-60
2022/12/30 01:20:57;;;;;;;1.73;0.80;;;;;;;;;;4527410;28;20567;-59
2022/12/30 01:23:08;;;;;;;1.30;0.77;;;;;;;;;;4528798;28;20040;-59
2022/12/30 01:25:18;;;;;;;1.33;0.80;;;;;;;;;;4528722;28;20043;-59
2022/12/30 01:27:30;;;;;;;1.15;0.77;;;;;;;;;;4527195;28;20072;-59
2022/12/30 01:29:41;;;;;;;0.75;0.57;;;;;;;;;;4530420;28;20123;-59
2022/12/30 01:31:58;;;;;;;1.35;0.88;;;;;;;;;;4526086;28;20111;-59
2022/12/30 01:34:08;;;;;;;1.38;0.70;;;;;;;;;;4528290;28;20034;-60
2022/12/30 01:36:18;;;;;;;0.90;0.70;;;;;;;;;;4526672;28;20485;-60
2022/12/30 01:38:30;;;;;;;1.98;0.70;;;;;;;;;;4527636;28;20131;-59
2022/12/30 01:40:40;;;;;;;1.15;0.80;;;;;;;;;;4527637;28;20143;-60
2022/12/30 01:42:50;;;;;;;1.13;0.70;;;;;;;;;;4527361;28;20048;-60
2022/12/30 01:45:33;;;;;;;1.20;0.80;;;;;;;;;;4524299;28;20115;-60
2022/12/30 01:47:51;;;;;;;2.30;0.73;;;;;;;;;;4508659;28;20037;-59
2022/12/30 01:50:10;;;;;;;2.83;0.90;;;;;;;;;;4526868;28;20036;-60
2022/12/30 01:52:23;;;;;;;1.20;0.75;;;;;;;;;;4535316;28;20033;-60
2022/12/30 01:54:33;;;;;;;1.10;0.70;;;;;;;;;;4526800;28;20029;-60
2022/12/30 01:56:44;;;;;;;1.25;0.60;;;;;;;;;;4537854;28;20595;-60
2022/12/30 01:59:02;;;;;;;2.15;0.95;;;;;;;;;;4526583;28;20040;-60
2022/12/30 02:01:13;;;;;;;1.17;0.68;;;;;;;;;;4524840;28;20809;-60
2022/12/30 02:03:25;;;;;;;1.42;0.63;;;;;;;;;;4525621;28;20033;-60
2022/12/30 02:05:36;;;;;;;1.20;0.70;;;;;;;;;;4525262;28;20041;-58
2022/12/30 02:07:53;;;;;;;1.08;0.70;;;;;;;;;;4526368;28;20037;-60
2022/12/30 02:10:05;;;;;;;1.40;0.75;;;;;;;;;;4526888;28;20148;-59
2022/12/30 02:12:15;;;;;;;1.73;0.80;;;;;;;;;;4526248;28;20079;-60
2022/12/30 02:14:27;;;;;;;1.42;0.70;;;;;;;;;;4526850;28;20048;-59
2022/12/30 02:16:45;;;;;;;1.42;0.70;;;;;;;;;;4525514;28;20045;-60
2022/12/30 02:19:01;;;;;;;1.23;0.77;;;;;;;;;;4524905;28;20494;-60
2022/12/30 02:21:28;;;;;;;1.40;0.68;;;;;;;;;;4525399;28;20576;-59
2022/12/30 02:23:57;;;;;;;1.13;0.80;;;;;;;;;;4526823;28;20030;-59
2022/12/30 02:26:17;;;;;;;0.73;0.60;;;;;;;;;;4527844;28;20889;-59
2022/12/30 02:28:27;;;;;;;1.48;0.73;;;;;;;;;;4533534;28;20048;-60
2022/12/30 02:30:52;;;;;;;1.05;0.70;;;;;;;;;;4525140;28;20029;-59
2022/12/30 02:33:09;;;;;;;1.48;0.65;;;;;;;;;;4526455;28;20260;-60
2022/12/30 02:35:40;;;;;;;1.25;0.80;;;;;;;;;;4527195;28;20497;-59
2022/12/30 02:37:56;;;;;;;1.63;0.80;;;;;;;;;;4524922;28;20076;-59
2022/12/30 02:40:09;;;;;;;1.33;0.70;;;;;;;;;;4526647;28;20572;-60
2022/12/30 02:44:54;;;;;;;1.83;0.82;;;;;;;;;;4526366;28;20037;-60
2022/12/30 02:47:10;;;;;;;1.13;0.70;;;;;;;;;;4526900;28;20037;-59
2022/12/30 02:49:22;;;;;;;1.67;0.70;;;;;;;;;;4526141;28;20038;-60
2022/12/30 02:54:01;;;;;;;0.80;0.60;;;;;;;;;;4528503;28;20041;-59
2022/12/30 02:56:12;;;;;;;1.90;0.90;;;;;;;;;;4530252;28;20033;-59
2022/12/30 02:58:23;;;;;;;0.98;0.70;;;;;;;;;;4530025;28;20030;-59
2022/12/30 03:06:00;;;;;;;1.10;0.60;;;;;;;;;;4528605;28;20044;-61
2022/12/30 03:08:19;;;;;;;0.80;0.55;;;;;;;;;;4536120;28;20114;-59
2022/12/30 03:13:05;;;;;;;0.88;0.60;;;;;;;;;;4528083;28;20052;-60
2022/12/30 03:15:19;;;;;;;1.00;0.70;;;;;;;;;;4529509;28;20036;-59
2022/12/30 03:17:31;;;;;;;1.67;0.55;;;;;;;;;;4528766;28;20159;-60
2022/12/30 03:19:43;;;;;;;1.40;0.77;;;;;;;;;;4528669;28;20045;-59
2022/12/30 03:21:54;;;;;;;1.85;0.63;;;;;;;;;;4528691;28;20045;-60
2022/12/30 03:29:06;;;;;;;2.10;1.38;;;;;;;;;;4528927;28;20580;-59
2022/12/30 03:31:17;;;;;;;1.85;0.85;;;;;;;;;;4528642;28;20139;-59
2022/12/30 03:33:28;;;;;;;1.00;0.80;;;;;;;;;;4528954;28;20113;-60
2022/12/30 03:35:43;;;;;;;0.98;0.68;;;;;;;;;;4528626;28;20497;-59
2022/12/30 03:37:57;;;;;;;1.45;0.75;;;;;;;;;;4537994;28;20088;-60
2022/12/30 03:40:10;;;;;;;1.10;0.70;;;;;;;;;;4543730;28;20688;-59
2022/12/30 03:42:21;;;;;;;1.75;0.90;;;;;;;;;;4527744;28;20064;-60
2022/12/30 03:44:32;;;;;;;0.80;0.70;;;;;;;;;;4527098;28;20623;-59
2022/12/30 03:46:43;;;;;;;1.95;0.63;;;;;;;;;;4528421;28;21000;-60
2022/12/30 03:48:54;;;;;;;1.13;0.70;;;;;;;;;;4527825;28;20036;-59
2022/12/30 03:51:04;;;;;;;1.30;0.60;;;;;;;;;;4527321;28;20904;-60
2022/12/30 03:53:14;;;;;;;1.70;0.90;;;;;;;;;;4528873;28;20692;-60
2022/12/30 03:55:25;;;;;;;1.33;0.73;;;;;;;;;;4527194;28;20837;-59
2022/12/30 03:57:36;;;;;;;1.23;0.80;;;;;;;;;;4529633;28;20042;-59
2022/12/30 03:59:46;;;;;;;0.88;0.60;;;;;;;;;;4528716;28;20055;-59
2022/12/30 04:01:56;;;;;;;0.82;0.50;;;;;;;;;;4526469;28;20040;-60
2022/12/30 04:04:07;;;;;;;1.80;0.98;;;;;;;;;;4532041;28;20096;-59
2022/12/30 04:06:17;;;;;;;1.60;0.70;;;;;;;;;;4529286;28;20129;-59
2022/12/30 04:08:27;;;;;;;1.08;0.70;;;;;;;;;;4529146;28;20126;-59
2022/12/30 04:10:38;;;;;;;1.58;0.60;;;;;;;;;;4529894;28;20037;-59
2022/12/30 04:12:48;;;;;;;1.33;0.70;;;;;;;;;;4527964;28;20525;-60
2022/12/30 04:14:58;;;;;;;1.15;0.70;;;;;;;;;;4527567;28;20042;-59
2022/12/30 04:17:09;;;;;;;1.60;0.80;;;;;;;;;;4526513;28;20120;-60
2022/12/30 04:19:19;;;;;;;1.67;0.80;;;;;;;;;;4527048;28;20037;-60
2022/12/30 04:21:29;;;;;;;0.95;0.70;;;;;;;;;;4528045;28;20025;-60
2022/12/30 04:23:39;;;;;;;1.65;0.77;;;;;;;;;;4526266;28;20037;-59
2022/12/30 04:25:50;;;;;;;1.75;0.77;;;;;;;;;;4527504;28;20100;-59
2022/12/30 04:28:00;;;;;;;1.35;0.60;;;;;;;;;;4527699;28;20025;-60
2022/12/30 04:30:11;;;;;;;2.08;0.70;;;;;;;;;;4527371;28;20110;-60
2022/12/30 04:32:21;;;;;;;1.23;0.60;;;;;;;;;;4529152;28;20029;-60
2022/12/30 04:34:31;;;;;;;2.15;0.85;;;;;;;;;;4527311;28;20036;-59
2022/12/30 04:36:42;;;;;;;1.38;0.80;;;;;;;;;;4529058;28;20774;-59
2022/12/30 04:38:52;;;;;;;1.60;0.70;;;;;;;;;;4527191;28;20025;-59
2022/12/30 04:41:03;;;;;;;1.40;0.73;;;;;;;;;;4528905;28;20029;-59
2022/12/30 04:43:13;;;;;;;1.45;0.77;;;;;;;;;;4526969;28;20551;-60
2022/12/30 04:45:23;;;;;;;1.27;0.70;;;;;;;;;;4526956;28;20033;-59
2022/12/30 04:47:34;;;;;;;1.98;0.90;;;;;;;;;;4528432;28;20112;-59
2022/12/30 04:49:44;;;;;;;1.10;0.60;;;;;;;;;;4532079;28;20049;-60
2022/12/30 04:51:55;;;;;;;1.75;0.70;;;;;;;;;;4527900;28;20033;-59
2022/12/30 04:54:05;;;;;;;1.35;0.70;;;;;;;;;;4527896;28;20045;-59
2022/12/30 04:56:15;;;;;;;0.98;0.60;;;;;;;;;;4529635;28;20508;-59
2022/12/30 04:58:26;;;;;;;1.45;0.80;;;;;;;;;;4537240;28;20056;-59
2022/12/30 05:00:36;;;;;;;1.65;0.73;;;;;;;;;;4528067;28;20874;-60
2022/12/30 05:02:46;;;;;;;1.88;0.77;;;;;;;;;;4526716;28;20044;-60
2022/12/30 05:04:57;;;;;;;1.27;0.60;;;;;;;;;;4526517;28;20038;-59
2022/12/30 05:07:07;;;;;;;1.05;0.60;;;;;;;;;;4527032;28;20045;-59
2022/12/30 05:09:17;;;;;;;1.15;0.57;;;;;;;;;;4526929;28;20041;-60
2022/12/30 05:11:27;;;;;;;1.42;0.63;;;;;;;;;;4525520;28;20083;-59
2022/12/30 05:13:38;;;;;;;1.45;0.70;;;;;;;;;;4528512;28;20028;-59
2022/12/30 05:15:48;;;;;;;0.68;0.50;;;;;;;;;;4527435;28;20781;-59
2022/12/30 05:17:58;;;;;;;1.58;0.70;;;;;;;;;;4524516;28;20049;-59
2022/12/30 05:20:09;;;;;;;0.90;0.60;;;;;;;;;;4526232;28;20029;-59
2022/12/30 05:22:19;;;;;;;1.20;0.60;;;;;;;;;;4528049;28;20093;-59
2022/12/30 05:26:59;;;;;;;1.48;0.70;;;;;;;;;;4532756;28;20627;-59
2022/12/30 05:29:09;;;;;;;0.98;0.50;;;;;;;;;;4526972;28;20340;-59
2022/12/30 05:31:19;;;;;;;1.20;0.63;;;;;;;;;;4526422;28;20045;-60
2022/12/30 05:33:30;;;;;;;0.90;0.70;;;;;;;;;;4527571;28;20119;-59
2022/12/30 05:35:40;;;;;;;1.42;0.63;;;;;;;;;;4528132;28;20909;-60
2022/12/30 05:37:50;;;;;;;2.45;1.05;;;;;;;;;;4526981;28;20215;-59
2022/12/30 05:40:00;;;;;;;1.10;0.60;;;;;;;;;;4527443;28;20044;-59
2022/12/30 05:42:11;;;;;;;1.70;0.80;;;;;;;;;;4526419;28;20077;-60
2022/12/30 05:44:21;;;;;;;1.27;0.82;;;;;;;;;;4525739;28;20087;-59
2022/12/30 05:46:31;;;;;;;1.08;0.73;;;;;;;;;;4526668;28;20075;-60
2022/12/30 05:48:42;;;;;;;0.98;0.65;;;;;;;;;;4526673;28;20037;-59
2022/12/30 05:50:52;;;;;;;1.05;0.65;;;;;;;;;;4527214;28;20071;-60
2022/12/30 05:53:02;;;;;;;1.85;1.20;;;;;;;;;;4526531;28;20100;-59
2022/12/30 05:55:13;;;;;;;2.10;1.30;;;;;;;;;;4525238;28;20111;-59
2022/12/30 05:57:23;;;;;;;2.35;1.80;;;;;;;;;;4527287;28;20115;-60
2022/12/30 05:59:33;;;;;;;1.83;1.10;;;;;;;;;;4527334;28;20090;-59
2022/12/30 06:01:43;;;;;;;1.20;0.70;;;;;;;;;;4526845;28;20043;-59
2022/12/30 06:03:57;;;;;;;1.13;0.73;;;;;;;;;;4526747;28;20493;-60
2022/12/30 06:06:08;;;;;;;1.27;0.70;;;;;;;;;;4526128;28;20150;-59
2022/12/30 06:08:18;;;;;;;1.63;0.60;;;;;;;;;;4526192;28;20083;-59
2022/12/30 06:10:29;;;;;;;1.35;0.70;;;;;;;;;;4527004;28;20079;-60
2022/12/30 06:12:39;;;;;;;2.38;0.70;;;;;;;;;;4526216;28;20511;-60
2022/12/30 06:14:49;;;;;;;1.05;0.60;;;;;;;;;;4535040;28;20143;-59
2022/12/30 06:17:00;;;;;;;1.30;0.52;;;;;;;;;;4530028;28;20049;-60
2022/12/30 06:19:10;;;;;;;1.67;0.80;;;;;;;;;;4524933;28;20033;-60
2022/12/30 06:21:20;;;;;;;1.15;0.60;;;;;;;;;;4526965;28;20029;-59
2022/12/30 06:23:31;;;;;;;1.25;0.80;;;;;;;;;;4526141;28;20064;-59
2022/12/30 06:25:41;;;;;;;1.13;0.70;;;;;;;;;;4526404;28;20132;-60
2022/12/30 06:27:51;;;;;;;1.02;0.60;;;;;;;;;;4526112;28;20548;-59
2022/12/30 06:30:02;;;;;;;1.33;0.60;;;;;;;;;;4526226;28;20131;-60
2022/12/30 06:32:13;;;;;;;1.30;0.75;;;;;;;;;;4527933;28;20048;-59
2022/12/30 06:34:23;;;;;;;1.63;0.70;;;;;;;;;;4526875;28;20038;-59
2022/12/30 06:36:33;;;;;;;1.63;0.70;;;;;;;;;;4526059;28;20053;-60
2022/12/30 06:38:44;;;;;;;1.20;0.70;;;;;;;;;;4525415;28;20045;-60
2022/12/30 06:40:54;;;;;;;1.23;0.60;;;;;;;;;;4526764;28;20501;-59
2022/12/30 06:43:04;;;;;;;1.02;0.57;;;;;;;;;;4528522;28;20041;-59
2022/12/30 06:45:15;;;;;;;1.75;0.70;;;;;;;;;;4529364;28;20025;-60
2022/12/30 06:47:25;;;;;;;0.63;0.60;;;;;;;;;;4525150;28;20123;-60
2022/12/30 06:49:35;;;;;;;1.33;0.60;;;;;;;;;;4524450;28;20079;-59
2022/12/30 06:51:46;;;;;;;1.27;0.63;;;;;;;;;;4525214;28;20477;-58
2022/12/30 06:53:56;;;;;;;1.20;0.68;;;;;;;;;;4527460;28;20973;-60
2022/12/30 06:56:06;;;;;;;1.15;0.70;;;;;;;;;;4524919;28;20041;-59
2022/12/30 06:58:17;;;;;;;1.70;0.60;;;;;;;;;;4527382;28;20164;-60
2022/12/30 07:00:27;;;;;;;1.05;0.60;;;;;;;;;;4525892;28;20159;-60
2022/12/30 07:02:37;;;;;;;0.88;0.55;;;;;;;;;;4526607;28;20040;-60
2022/12/30 07:04:48;;;;;;;1.10;0.63;;;;;;;;;;4534880;28;20037;-60
2022/12/30 07:06:58;;;;;;;1.00;0.60;;;;;;;;;;4527025;28;20040;-60
2022/12/30 07:09:09;;;;;;;0.98;0.60;;;;;;;;;;4525065;28;20040;-60
2022/12/30 07:11:19;;;;;;;1.55;0.60;;;;;;;;;;4527663;28;20064;-59
2022/12/30 07:13:29;;;;;;;0.98;0.40;;;;;;;;;;4525614;28;20688;-60
2022/12/30 07:15:40;;;;;;;0.93;0.52;;;;;;;;;;4525910;28;20179;-60
2022/12/30 07:17:51;;;;;;;1.00;0.60;;;;;;;;;;4526687;28;20146;-60
2022/12/30 07:20:01;;;;;;;1.48;0.60;;;;;;;;;;4526127;28;20033;-59
2022/12/30 07:22:11;;;;;;;1.52;0.60;;;;;;;;;;4524937;28;20109;-60
2022/12/30 07:24:22;;;;;;;1.52;0.60;;;;;;;;;;4527242;28;20038;-60
2022/12/30 07:26:32;;;;;;;1.00;0.60;;;;;;;;;;4528098;28;20025;-61
2022/12/30 07:28:43;;;;;;;1.02;0.60;;;;;;;;;;4525683;28;20477;-59
2022/12/30 07:30:53;;;;;;;1.27;0.50;;;;;;;;;;4526692;28;20117;-59
2022/12/30 07:33:03;;;;;;;0.85;0.70;;;;;;;;;;4525976;28;20034;-59
2022/12/30 07:35:13;;;;;;;1.05;0.60;;;;;;;;;;4525887;28;20040;-60
2022/12/30 07:37:24;;;;;;;0.70;0.40;;;;;;;;;;4527069;28;20045;-59
2022/12/30 07:39:34;;;;;;;1.85;0.75;;;;;;;;;;4531399;28;20057;-61
2022/12/30 07:41:44;;;;;;;1.42;0.70;;;;;;;;;;4528343;28;20136;-61
2022/12/30 07:43:55;;;;;;;1.27;0.68;;;;;;;;;;4528116;28;20033;-60
2022/12/30 07:46:06;;;;;;;1.02;0.70;;;;;;;;;;4526705;28;20080;-62
2022/12/30 07:48:16;;;;;;;1.52;0.68;;;;;;;;;;4543914;28;20033;-59
2022/12/30 07:50:27;;;;;;;1.02;0.60;;;;;;;;;;4526654;28;20033;-59
2022/12/30 07:52:37;;;;;;;1.17;0.60;;;;;;;;;;4526182;28;20484;-59
2022/12/30 07:54:47;;;;;;;1.50;0.52;;;;;;;;;;4527565;28;20045;-59
2022/12/30 07:56:58;;;;;;;1.02;0.60;;;;;;;;;;4527252;28;20852;-58
2022/12/30 07:59:10;;;;;;;1.50;0.65;;;;;;;;;;4534107;28;20033;-59
2022/12/30 08:01:20;;;;;;;1.60;0.55;;;;;;;;;;4526459;28;20702;-59
2022/12/30 08:03:31;;;;;;;0.98;0.50;;;;;;;;;;4532349;28;20123;-59
2022/12/30 08:05:41;;;;;;;1.75;0.70;;;;;;;;;;4526831;28;20603;-59
2022/12/30 08:07:52;;;;;;;0.77;0.50;;;;;;;;;;4526534;28;20489;-60
2022/12/30 08:10:02;;;;;;;1.17;0.60;;;;;;;;;;4526655;28;20532;-59
2022/12/30 08:12:13;;;;;;;0.98;0.50;;;;;;;;;;4525623;28;20040;-59
2022/12/30 08:14:24;;;;;;;1.35;0.60;;;;;;;;;;4526618;28;20489;-59
2022/12/30 08:16:34;;;;;;;1.20;0.60;;;;;;;;;;4527148;28;20043;-58
2022/12/30 08:18:45;;;;;;;0.85;0.50;;;;;;;;;;4525963;28;20034;-59
2022/12/30 08:20:58;;;;;;;1.13;0.50;;;;;;;;;;4527558;28;20045;-59
2022/12/30 08:23:08;;;;;;;0.75;0.50;;;;;;;;;;4528811;28;20142;-58
2022/12/30 08:25:18;;;;;;;1.08;0.55;;;;;;;;;;4527284;28;20595;-59
2022/12/30 08:27:31;;;;;;;0.95;0.47;;;;;;;;;;4527268;28;20034;-59
2022/12/30 08:29:41;;;;;;;1.05;0.60;;;;;;;;;;4526338;28;20041;-58
2022/12/30 08:31:51;;;;;;;1.33;0.93;;;;;;;;;;4527840;28;20378;-59
2022/12/30 08:34:02;;;;;;;1.48;0.60;;;;;;;;;;4527215;28;20034;-59
2022/12/30 08:36:14;;;;;;;1.33;0.80;;;;;;;;;;4527176;28;20037;-59
2022/12/30 08:38:24;;;;;;;0.82;0.50;;;;;;;;;;4533601;28;20156;-59
2022/12/30 08:40:34;;;;;;;1.15;0.50;;;;;;;;;;4527378;28;20036;-59
2022/12/30 08:42:44;;;;;;;1.23;0.57;;;;;;;;;;4526840;28;20060;-59
2022/12/30 08:44:55;;;;;;;1.65;0.60;;;;;;;;;;4527572;28;20103;-59
2022/12/30 08:47:05;;;;;;;1.17;0.65;;;;;;;;;;4527688;28;20370;-59
2022/12/30 08:49:15;;;;;;;1.60;0.70;;;;;;;;;;4526230;28;20120;-59
2022/12/30 08:51:26;;;;;;;1.38;0.68;;;;;;;;;;4526398;28;20416;-59
2022/12/30 08:53:37;;;;;;;1.20;0.70;;;;;;;;;;4526513;28;20118;-59
2022/12/30 08:55:47;;;;;;;0.95;0.50;;;;;;;;;;4525855;28;20048;-59
2022/12/30 08:57:57;;;;;;;1.02;0.60;;;;;;;;;;4518149;28;20045;-59
2022/12/30 09:00:08;;;;;;;1.15;0.60;;;;;;;;;;4526408;28;20033;-59
2022/12/30 09:02:19;;;;;;;0.55;0.40;;;;;;;;;;4536405;28;20041;-59
2022/12/30 09:04:29;;;;;;;1.13;0.70;;;;;;;;;;4528197;28;20536;-59
2022/12/30 09:06:40;;;;;;;0.75;0.60;;;;;;;;;;4526831;28;20472;-59
2022/12/30 09:08:51;;;;;;;0.45;0.45;;;;;;;;;;4526195;28;20107;-59
2022/12/30 09:11:02;;;;;;;1.25;0.50;;;;;;;;;;4527172;28;20543;-59
2022/12/30 09:13:13;;;;;;;1.10;0.57;;;;;;;;;;4524697;28;20030;-59
2022/12/30 09:15:23;;;;;;;0.50;0.50;;;;;;;;;;4525618;28;20052;-59
2022/12/30 09:17:33;;;;;;;0.60;0.47;;;;;;;;;;4524722;28;20080;-59
2022/12/30 09:19:44;;;;;;;1.23;0.60;;;;;;;;;;4525882;28;20557;-59
2022/12/30 09:21:54;;;;;;;0.65;0.50;;;;;;;;;;4527079;28;20041;-59
2022/12/30 09:24:04;;;;;;;1.02;0.57;;;;;;;;;;4526488;28;20814;-59
2022/12/30 09:26:16;;;;;;;0.30;0.30;;;;;;;;;;4533661;28;20037;-59
2022/12/30 09:28:26;;;;;;;0.60;0.40;;;;;;;;;;4525391;28;20567;-59
2022/12/30 09:30:36;;;;;;;1.48;0.50;;;;;;;;;;4530918;28;20047;-59
2022/12/30 09:32:47;;;;;;;0.50;0.40;;;;;;;;;;4525308;28;20045;-59
2022/12/30 09:34:57;;;;;;;0.63;0.47;;;;;;;;;;4525958;28;20030;-59
2022/12/30 09:37:08;;;;;;;0.90;0.40;;;;;;;;;;4528698;28;20041;-59
2022/12/30 09:39:30;;;;;;;1.75;0.57;;;;;;;;;;4524769;28;20049;-59
2022/12/30 09:44:30;;;;;;;0.68;0.40;;;;;;;;;;4527805;28;20039;-59
2022/12/30 09:46:40;;;;;;;1.88;0.60;;;;;;;;;;4526975;28;20051;-59
2022/12/30 09:48:54;;;;;;;0.40;0.30;;;;;;;;;;4525450;28;20040;-59
2022/12/30 09:51:09;;;;;;;0.73;0.47;;;;;;;;;;4525223;28;20037;-59
2022/12/30 09:53:24;;;;;;;0.47;0.40;;;;;;;;;;4524998;28;20079;-59
2022/12/30 09:55:45;;;;;;;1.35;0.50;;;;;;;;;;4525497;28;21051;-59
2022/12/30 09:57:58;;;;;;;0.57;0.43;;;;;;;;;;4525896;28;20049;-59
2022/12/30 10:00:14;;;;;;;1.10;0.47;;;;;;;;;;4524999;28;20061;-59
2022/12/30 10:02:27;;;;;;;0.68;0.40;;;;;;;;;;4526896;28;21250;-59
2022/12/30 10:04:37;;;;;;;0.55;0.40;;;;;;;;;;4525613;28;20042;-60
2022/12/30 10:06:50;;;;;;;0.65;0.40;;;;;;;;;;4525972;28;20998;-61
2022/12/30 10:09:01;;;;;;;0.93;0.45;;;;;;;;;;4524453;28;21272;-60
2022/12/30 10:11:26;;;;;;;0.98;0.50;;;;;;;;;;4523871;28;20053;-60
2022/12/30 10:13:50;;;;;;;0.57;0.40;;;;;;;;;;4525934;28;20098;-60
2022/12/30 10:16:33;;;;;;;0.75;0.40;;;;;;;;;;4525697;28;20080;-61
2022/12/30 10:18:49;;;;;;;0.60;0.40;;;;;;;;;;4493477;28;20050;-59
2022/12/30 10:21:20;;;;;;;0.90;0.40;;;;;;;;;;4523794;28;20085;-59
2022/12/30 10:23:46;;;;;;;0.45;0.40;;;;;;;;;;4527009;28;20045;-59
2022/12/30 10:26:08;;;;;;;1.05;0.40;;;;;;;;;;4524842;28;20037;-59
2022/12/30 10:28:24;;;;;;;0.90;0.40;;;;;;;;;;4524492;28;20037;-60
2022/12/30 10:30:37;;;;;;;0.50;0.40;;;;;;;;;;4525141;28;20100;-59
2022/12/30 10:32:52;;;;;;;0.88;0.32;;;;;;;;;;4535637;28;20092;-59
2022/12/30 10:35:05;;;;;;;0.85;0.57;;;;;;;;;;4535815;28;20036;-59
2022/12/30 10:37:35;;;;;;;5.63;5.13;;;;;;;;;;4524112;28;20042;-59
2022/12/30 10:39:47;;;;;;;5.80;5.30;;;;;;;;;;4526040;28;20033;-59
2022/12/30 10:42:16;;;;;;;5.75;5.25;;;;;;;;;;4523745;28;20041;-59
2022/12/30 10:44:42;;;;;;;5.50;5.00;;;;;;;;;;4524771;28;20031;-60
2022/12/30 10:46:57;;;;;;;5.47;4.97;;;;;;;;;;4526343;28;20141;-59
2022/12/30 10:49:13;;;;;;;5.60;5.10;;;;;;;;;;4524368;28;20084;-59
2022/12/30 10:51:25;;;;;;;5.57;5.07;;;;;;;;;;4524104;28;20067;-59
2022/12/30 10:53:35;;;;;;;5.93;5.38;;;;;;;;;;4539360;28;21110;-59
2022/12/30 10:55:46;;;;;;;5.50;5.00;;;;;;;;;;4525324;28;20132;-59
2022/12/30 10:58:09;;;;;;;5.45;4.95;;;;;;;;;;4523223;28;20041;-59
2022/12/30 11:00:20;;;;;;;5.75;5.25;;;;;;;;;;4524813;28;20039;-59
2022/12/30 11:02:35;;;;;;;5.65;5.15;;;;;;;;;;4524780;28;20038;-59
2022/12/30 11:04:45;;;;;;;5.70;5.20;;;;;;;;;;4525331;28;20679;-59
2022/12/30 11:06:59;;;;;;;5.55;5.05;;;;;;;;;;4524213;28;20128;-59
2022/12/30 11:09:13;;;;;;;6.00;5.43;;;;;;;;;;4525721;28;20524;-59
2022/12/30 11:14:42;;;;;;;5.95;5.45;;;;;;;;;;4527261;28;20044;-59
2022/12/30 11:16:30;;;;;;;5.93;5.43;;;;;;;;;;4527497;28;20600;-59
2022/12/30 11:18:44;;;;;;;5.90;5.30;;;;;;;;;;4527662;28;20045;-60
2022/12/30 11:20:56;;;;;;;6.03;5.45;;;;;;;;;;4527332;28;20085;-59
2022/12/30 11:23:22;;;;;;;6.05;5.55;;;;;;;;;;4528069;28;20487;-59
2022/12/30 11:25:37;;;;;;;5.78;5.28;;;;;;;;;;4527207;28;20203;-59
2022/12/30 11:27:49;;;;;;;6.15;5.55;;;;;;;;;;4528119;28;20040;-59
2022/12/30 11:29:59;;;;;;;5.90;5.40;;;;;;;;;;4528619;28;20515;-59
2022/12/30 11:32:10;;;;;;;5.80;5.22;;;;;;;;;;4527963;28;20059;-59
2022/12/30 11:34:31;;;;;;;5.80;5.30;;;;;;;;;;4525941;28;20656;-59
2022/12/30 11:36:42;;;;;;;6.13;5.53;;;;;;;;;;4526550;28;20037;-59
2022/12/30 11:38:53;;;;;;;5.90;5.40;;;;;;;;;;4528507;28;20529;-59
2022/12/30 11:41:12;;;;;;;5.90;5.40;;;;;;;;;;4536001;28;20037;-59
2022/12/30 11:43:23;;;;;;;5.78;5.20;;;;;;;;;;4528951;28;20041;-59
2022/12/30 11:45:33;;;;;;;5.95;5.45;;;;;;;;;;4532618;28;20036;-59
2022/12/30 11:47:45;;;;;;;5.55;5.05;;;;;;;;;;4528231;28;20049;-58
2022/12/30 11:49:57;;;;;;;5.57;5.07;;;;;;;;;;4527590;28;20041;-59
2022/12/30 11:52:12;;;;;;;6.07;5.47;;;;;;;;;;4527822;28;20037;-59
2022/12/30 11:54:27;;;;;;;5.88;5.38;;;;;;;;;;4537516;28;20037;-59
2022/12/30 11:56:50;;;;;;;5.70;5.20;;;;;;;;;;4527587;28;20045;-59
2022/12/30 11:59:15;;;;;;;5.90;5.40;;;;;;;;;;4528717;28;20037;-59
2022/12/30 12:01:25;;;;;;;5.60;5.10;;;;;;;;;;4529277;28;20025;-59
2022/12/30 12:03:47;;;;;;;5.88;5.38;;;;;;;;;;4527490;28;20037;-61
2022/12/30 12:06:05;;;;;;;5.82;5.22;;;;;;;;;;4527586;28;20120;-59
2022/12/30 12:08:25;;;;;;;5.97;5.43;;;;;;;;;;4526781;28;20037;-59
2022/12/30 12:10:36;;;;;;;5.82;5.32;;;;;;;;;;4528713;28;20126;-59
2022/12/30 12:12:49;;;;;;;6.07;5.47;;;;;;;;;;4526310;28;20030;-59
2022/12/30 12:15:12;;;;;;;6.10;5.50;;;;;;;;;;4527941;28;20042;-59
2022/12/30 12:17:36;;;;;;;5.90;5.40;;;;;;;;;;4527030;28;20045;-59
2022/12/30 12:19:50;;;;;;;5.70;5.20;;;;;;;;;;4526353;28;20138;-59
2022/12/30 12:22:02;;;;;;;6.20;5.60;;;;;;;;;;4525860;28;20033;-59
2022/12/30 12:24:32;;;;;;;5.75;5.25;;;;;;;;;;4526807;28;20033;-59
2022/12/30 12:26:46;;;;;;;6.18;5.57;;;;;;;;;;4528922;28;20041;-59
2022/12/30 12:28:56;;;;;;;5.85;5.35;;;;;;;;;;4525944;28;20044;-59
2022/12/30 12:31:16;;;;;;;6.18;5.57;;;;;;;;;;4526460;28;20056;-59
2022/12/30 12:33:37;;;;;;;5.90;5.40;;;;;;;;;;4525813;28;20037;-59
2022/12/30 12:35:51;;;;;;;5.95;5.45;;;;;;;;;;4526462;28;20828;-60
2022/12/30 12:38:18;;;;;;;5.47;4.97;;;;;;;;;;4527644;28;20095;-62
2022/12/30 12:40:35;;;;;;;5.43;4.97;;;;;;;;;;4536395;28;20080;-59
2022/12/30 12:42:53;;;;;;;5.45;4.95;;;;;;;;;;4527000;28;20037;-62
2022/12/30 12:45:18;;;;;;;5.88;5.38;;;;;;;;;;4527254;28;20636;-59
2022/12/30 12:47:34;;;;;;;6.22;5.63;;;;;;;;;;4526687;28;20123;-59
2022/12/30 12:49:57;;;;;;;5.82;5.32;;;;;;;;;;4527537;28;20037;-59
2022/12/30 12:52:20;;;;;;;5.97;5.47;;;;;;;;;;4526557;28;20087;-59
2022/12/30 12:54:30;;;;;;;5.70;5.20;;;;;;;;;;4525012;28;20032;-59
2022/12/30 12:56:46;;;;;;;5.70;5.20;;;;;;;;;;4526150;28;20044;-59
2022/12/30 12:59:16;;;;;;;6.28;5.68;;;;;;;;;;4526555;28;20049;-59
2022/12/30 13:01:29;;;;;;;5.65;5.15;;;;;;;;;;4526350;28;20623;-59
2022/12/30 13:03:56;;;;;;;5.93;5.32;;;;;;;;;;4525064;28;20124;-59
2022/12/30 13:06:12;;;;;;;5.88;5.30;;;;;;;;;;4526402;28;20083;-59
2022/12/30 13:08:23;;;;;;;6.13;5.53;;;;;;;;;;4526564;28;20048;-59
2022/12/30 13:10:38;;;;;;;6.00;5.50;;;;;;;;;;4526631;28;20035;-59
2022/12/30 13:13:07;;;;;;;6.03;5.45;;;;;;;;;;4526239;28;20987;-59
2022/12/30 13:15:36;;;;;;;5.68;5.18;;;;;;;;;;4526204;28;20036;-59
2022/12/30 13:17:48;;;;;;;5.60;5.10;;;;;;;;;;4526216;28;20037;-59
2022/12/30 13:20:00;;;;;;;5.60;5.10;;;;;;;;;;4527271;28;20033;-59
2022/12/30 13:22:12;;;;;;;5.53;5.03;;;;;;;;;;4526804;28;20042;-59
2022/12/30 13:24:31;;;;;;;5.75;5.25;;;;;;;;;;4526129;28;20600;-59
2022/12/30 13:26:41;;;;;;;5.95;5.35;;;;;;;;;;4526831;28;20037;-58
2022/12/30 13:28:53;;;;;;;5.60;5.10;;;;;;;;;;4526339;28;20038;-59
2022/12/30 13:31:23;;;;;;;5.45;4.95;;;;;;;;;;4525899;28;20048;-58
2022/12/30 13:33:56;;;;;;;5.55;5.05;;;;;;;;;;4526808;28;20029;-58
2022/12/30 13:36:29;;;;;;;6.15;5.55;;;;;;;;;;4493622;28;20076;-59
2022/12/30 13:38:39;;;;;;;5.47;4.97;;;;;;;;;;4488668;28;20057;-59
2022/12/30 13:40:50;;;;;;;5.32;4.82;;;;;;;;;;4526329;28;20029;-59
2022/12/30 13:43:17;;;;;;;5.40;4.90;;;;;;;;;;4527547;28;20078;-59
2022/12/30 13:45:42;;;;;;;6.00;5.50;;;;;;;;;;4525446;28;20837;-58
2022/12/30 13:47:57;;;;;;;5.47;4.97;;;;;;;;;;4526045;28;20033;-59
2022/12/30 13:50:19;;;;;;;5.80;5.22;;;;;;;;;;4525840;28;21288;-59
2022/12/30 13:52:30;;;;;;;5.22;4.80;;;;;;;;;;4526192;28;20041;-59
2022/12/30 13:54:49;;;;;;;6.03;5.43;;;;;;;;;;4540512;28;20033;-59
2022/12/30 13:57:00;;;;;;;5.57;5.07;;;;;;;;;;4534405;28;20130;-59
2022/12/30 13:59:22;;;;;;;5.78;5.28;;;;;;;;;;4525332;28;20037;-59
2022/12/30 14:01:38;;;;;;;5.72;5.22;;;;;;;;;;4525935;28;21320;-59
2022/12/30 14:03:49;;;;;;;5.88;5.38;;;;;;;;;;4524579;28;20590;-59
2022/12/30 14:06:20;;;;;;;5.50;5.00;;;;;;;;;;4525794;28;20048;-59
2022/12/30 14:08:30;;;;;;;5.50;5.00;;;;;;;;;;4526377;28;21297;-58
2022/12/30 14:10:42;;;;;;;5.50;5.00;;;;;;;;;;4526104;28;20037;-61
2022/12/30 14:13:11;;;;;;;5.60;5.10;;;;;;;;;;4524984;28;20037;-60
2022/12/30 14:15:34;;;;;;;5.40;4.90;;;;;;;;;;4510691;28;21200;-58